Time;durP1;ratioP1;P1;durP2;ratioP2;P2;SDS_P1;SDS_P2;PMS_P1;PMS_P2;Temp;Humidity;BMP_temperature;BMP_pressure;BME280_temperature;BME280_humidity;BME280_pressure;Samples;Min_cycle;Max_cycle;Signal;HPM_P1;HPM_P2
2021/10/29 00:01:15;;;;;;;9.93;4.90;;;;;;;4.25;99.90;95880.84;5069661;28;20048;-69
2021/10/29 00:03:42;;;;;;;9.05;4.68;;;;;;;4.29;98.90;95884.69;5074383;28;20106;-69
2021/10/29 00:06:10;;;;;;;10.10;4.95;;;;;;;4.32;97.94;95878.38;5068587;28;20049;-69
2021/10/29 00:08:37;;;;;;;8.27;4.40;;;;;;;4.38;97.29;95875.16;5072491;28;20040;-68
2021/10/29 00:11:03;;;;;;;9.10;4.43;;;;;;;4.39;96.89;95877.56;5065350;28;20041;-69
2021/10/29 00:13:30;;;;;;;8.30;4.13;;;;;;;4.43;96.37;95872.06;5064075;28;20043;-69
2021/10/29 00:15:57;;;;;;;9.40;5.80;;;;;;;4.43;95.42;95878.03;5066359;28;20147;-68
2021/10/29 00:18:24;;;;;;;7.63;4.70;;;;;;;4.43;94.86;95872.88;5063006;28;20052;-68
2021/10/29 00:20:55;;;;;;;11.85;5.18;;;;;;;4.16;98.89;95871.47;5064049;28;20474;-69
2021/10/29 00:23:24;;;;;;;9.02;5.15;;;;;;;4.09;99.16;95870.53;5069834;28;20419;-68
2021/10/29 00:25:51;;;;;;;14.00;5.28;;;;;;;4.17;98.71;95873.09;5068523;28;20052;-69
2021/10/29 00:28:18;;;;;;;9.02;4.93;;;;;;;4.02;98.87;95848.00;5072933;28;20134;-69
2021/10/29 00:30:45;;;;;;;12.68;4.97;;;;;;;4.07;99.44;95864.75;5064363;28;20091;-69
2021/10/29 00:33:12;;;;;;;10.20;4.05;;;;;;;3.98;99.39;95859.63;5064335;28;20117;-69
2021/10/29 00:35:38;;;;;;;11.82;4.88;;;;;;;3.94;99.35;95863.50;5067635;28;20044;-69
2021/10/29 00:38:05;;;;;;;10.57;4.18;;;;;;;3.79;99.93;95860.75;5076009;28;20052;-68
2021/10/29 00:40:34;;;;;;;11.27;5.30;;;;;;;3.63;100.00;95859.00;5065722;28;20051;-69
2021/10/29 00:43:01;;;;;;;7.32;4.55;;;;;;;3.63;100.00;95850.47;5075780;28;20852;-68
2021/10/29 00:45:28;;;;;;;11.32;4.78;;;;;;;3.61;100.00;95858.38;5074531;28;20079;-68
2021/10/29 00:47:55;;;;;;;9.40;4.43;;;;;;;3.57;100.00;95851.94;5081170;28;20043;-68
2021/10/29 00:50:22;;;;;;;10.52;5.75;;;;;;;3.48;100.00;95842.59;5070712;28;20045;-68
2021/10/29 00:52:49;;;;;;;8.15;3.85;;;;;;;3.61;100.00;95842.91;5075980;28;20177;-68
2021/10/29 00:55:16;;;;;;;13.27;4.75;;;;;;;3.62;100.00;95851.47;5087984;28;20044;-69
2021/10/29 00:57:43;;;;;;;9.18;4.13;;;;;;;3.58;100.00;95840.69;5071173;28;20553;-68
2021/10/29 01:00:11;;;;;;;8.43;4.30;;;;;;;3.56;100.00;95845.16;5075047;28;20433;-68
2021/10/29 01:02:39;;;;;;;10.13;4.50;;;;;;;3.51;100.00;95838.88;5066289;28;20044;-69
2021/10/29 01:05:07;;;;;;;9.57;4.95;;;;;;;3.38;100.00;95829.06;5075946;28;20112;-68
2021/10/29 01:07:34;;;;;;;6.45;4.40;;;;;;;3.47;100.00;95840.97;5065900;28;20086;-68
2021/10/29 01:10:02;;;;;;;11.63;5.30;;;;;;;3.22;100.00;95817.81;5073467;28;20052;-69
2021/10/29 01:12:29;;;;;;;9.68;5.30;;;;;;;3.25;100.00;95832.13;5068925;28;20037;-68
2021/10/29 01:14:58;;;;;;;11.57;6.07;;;;;;;3.36;100.00;95833.59;5066733;28;20036;-68
2021/10/29 01:17:26;;;;;;;10.60;5.65;;;;;;;3.35;100.00;95842.25;5068594;28;20418;-68
2021/10/29 01:19:55;;;;;;;10.50;5.10;;;;;;;3.34;100.00;95838.09;5066744;28;20116;-68
2021/10/29 01:22:23;;;;;;;8.20;5.15;;;;;;;3.36;100.00;95836.16;5074036;28;20040;-69
2021/10/29 01:24:50;;;;;;;8.05;5.00;;;;;;;3.42;100.00;95843.22;5071037;28;20131;-69
2021/10/29 01:27:18;;;;;;;11.57;4.65;;;;;;;3.36;100.00;95818.13;5068387;28;20047;-69
2021/10/29 01:29:46;;;;;;;7.70;4.90;;;;;;;3.46;100.00;95826.50;5072544;28;20386;-69
2021/10/29 01:32:13;;;;;;;10.23;5.25;;;;;;;3.58;100.00;95826.97;5069746;28;20711;-69
2021/10/29 01:34:41;;;;;;;15.25;5.93;;;;;;;3.46;100.00;95834.22;5073293;28;20047;-69
2021/10/29 01:37:10;;;;;;;20.00;8.32;;;;;;;3.22;100.00;95828.13;5065991;28;20395;-68
2021/10/29 01:39:38;;;;;;;16.38;8.65;;;;;;;3.17;100.00;95832.94;5077736;28;20044;-68
2021/10/29 01:42:05;;;;;;;11.50;7.13;;;;;;;3.12;100.00;95830.03;5071576;28;20071;-69
2021/10/29 01:44:32;;;;;;;29.80;10.75;;;;;;;3.05;100.00;95826.50;5056515;28;20052;-68
2021/10/29 01:46:59;;;;;;;18.55;8.77;;;;;;;3.13;100.00;95823.91;5068958;28;20075;-68
2021/10/29 01:49:26;;;;;;;38.60;17.92;;;;;;;3.24;100.00;95826.19;5076493;28;20147;-68
2021/10/29 01:51:53;;;;;;;28.55;8.73;;;;;;;3.29;100.00;95827.47;5069724;28;20098;-68
2021/10/29 01:54:20;;;;;;;19.02;9.48;;;;;;;3.35;100.00;95829.38;5068188;28;20048;-68
2021/10/29 01:56:47;;;;;;;16.33;7.97;;;;;;;3.27;100.00;95821.69;5073537;28;20047;-68
2021/10/29 01:59:14;;;;;;;12.52;6.22;;;;;;;3.31;100.00;95834.06;5048366;28;20044;-69
2021/10/29 02:01:41;;;;;;;11.63;6.38;;;;;;;3.25;100.00;95827.78;5070594;28;20047;-68
2021/10/29 02:04:08;;;;;;;12.45;5.65;;;;;;;3.19;100.00;95819.91;5058732;28;20397;-69
2021/10/29 02:06:35;;;;;;;14.32;6.45;;;;;;;3.30;100.00;95819.59;5066320;28;20459;-69
2021/10/29 02:09:03;;;;;;;12.00;6.53;;;;;;;3.20;100.00;95818.94;5066152;28;20044;-69
2021/10/29 02:11:29;;;;;;;18.05;8.88;;;;;;;3.23;100.00;95819.41;5067071;28;20036;-69
2021/10/29 02:13:56;;;;;;;15.18;6.97;;;;;;;3.22;100.00;95825.53;5076287;28;20040;-68
2021/10/29 02:16:23;;;;;;;13.27;6.43;;;;;;;3.09;100.00;95830.34;5071572;28;20132;-68
2021/10/29 02:18:50;;;;;;;9.50;5.22;;;;;;;3.16;100.00;95825.38;5073016;28;20049;-68
2021/10/29 02:21:16;;;;;;;10.88;6.07;;;;;;;2.93;100.00;95817.47;5073507;28;20036;-68
2021/10/29 02:23:43;;;;;;;10.88;5.93;;;;;;;2.90;100.00;95833.22;5073197;28;20048;-69
2021/10/29 02:26:10;;;;;;;14.80;6.88;;;;;;;2.78;100.00;95825.00;5067178;28;20044;-68
2021/10/29 02:28:38;;;;;;;17.02;7.85;;;;;;;2.76;100.00;95817.44;5070960;28;20087;-69
2021/10/29 02:31:05;;;;;;;13.50;7.07;;;;;;;2.73;100.00;95820.31;5071498;28;20043;-69
2021/10/29 02:33:32;;;;;;;12.93;6.70;;;;;;;2.66;100.00;95819.34;5065293;28;20102;-69
2021/10/29 02:35:59;;;;;;;11.38;6.13;;;;;;;2.71;100.00;95814.53;5071313;28;20044;-68
2021/10/29 02:38:26;;;;;;;12.35;6.53;;;;;;;2.74;100.00;95818.53;5068296;28;20032;-68
2021/10/29 02:40:53;;;;;;;29.33;11.95;;;;;;;2.72;100.00;95821.28;5069561;28;20123;-68
2021/10/29 02:43:21;;;;;;;18.92;8.88;;;;;;;2.70;100.00;95818.03;5075944;28;20432;-68
2021/10/29 02:45:47;;;;;;;15.98;8.75;;;;;;;2.77;100.00;95813.09;5066517;28;20738;-68
2021/10/29 02:48:15;;;;;;;17.67;8.07;;;;;;;2.86;100.00;95812.97;5053574;28;20052;-68
2021/10/29 02:50:41;;;;;;;12.30;7.88;;;;;;;2.95;100.00;95820.69;5055554;28;20386;-68
2021/10/29 02:53:09;;;;;;;12.45;6.85;;;;;;;2.87;100.00;95824.84;5071072;28;20425;-68
2021/10/29 02:55:35;;;;;;;15.23;8.23;;;;;;;2.74;100.00;95814.22;5066442;28;20040;-68
2021/10/29 02:58:03;;;;;;;30.70;12.95;;;;;;;2.87;100.00;95817.13;5065008;28;20105;-68
2021/10/29 03:00:30;;;;;;;18.45;9.65;;;;;;;2.91;100.00;95814.25;5075352;28;20453;-68
2021/10/29 03:02:57;;;;;;;13.73;6.80;;;;;;;2.85;100.00;95808.78;5070909;28;20041;-68
2021/10/29 03:05:25;;;;;;;12.80;6.78;;;;;;;2.95;100.00;95821.47;5080288;28;20032;-68
2021/10/29 03:07:52;;;;;;;14.60;7.20;;;;;;;2.95;100.00;95818.09;5071748;28;20052;-68
2021/10/29 03:10:19;;;;;;;13.48;7.22;;;;;;;2.83;100.00;95818.41;5069503;28;20071;-68
2021/10/29 03:12:46;;;;;;;12.20;6.72;;;;;;;2.85;100.00;95816.47;5073925;28;20109;-69
2021/10/29 03:15:13;;;;;;;11.80;6.72;;;;;;;2.89;100.00;95816.19;5065982;28;20048;-68
2021/10/29 03:17:40;;;;;;;11.80;6.80;;;;;;;2.96;100.00;95812.00;5072111;28;20044;-68
2021/10/29 03:20:08;;;;;;;12.40;6.32;;;;;;;2.91;100.00;95806.53;5088333;28;20568;-68
2021/10/29 03:22:36;;;;;;;12.10;6.35;;;;;;;2.95;100.00;95818.09;5073889;28;20047;-68
2021/10/29 03:25:04;;;;;;;13.38;6.35;;;;;;;3.00;100.00;95816.66;5073315;28;20056;-68
2021/10/29 03:27:31;;;;;;;13.50;6.70;;;;;;;3.07;100.00;95809.13;5072052;28;20094;-68
2021/10/29 03:29:57;;;;;;;18.50;7.32;;;;;;;3.07;100.00;95809.13;5065957;28;20048;-68
2021/10/29 03:32:24;;;;;;;8.98;4.53;;;;;;;3.08;100.00;95805.59;5063543;28;20485;-68
2021/10/29 03:34:51;;;;;;;10.70;6.38;;;;;;;3.06;100.00;95808.31;5074359;28;20489;-68
2021/10/29 03:39:56;;;;;;;10.65;6.00;;;;;;;3.13;100.00;95813.59;5068696;28;20777;-69
2021/10/29 03:42:29;;;;;;;12.07;6.10;;;;;;;3.11;100.00;95815.53;5057479;28;20495;-69
2021/10/29 03:45:05;;;;;;;9.82;4.88;;;;;;;3.08;100.00;95799.63;5066716;28;20045;-68
2021/10/29 03:47:39;;;;;;;10.25;5.00;;;;;;;3.17;100.00;95804.63;5069402;28;20060;-69
2021/10/29 03:53:07;;;;;;;13.65;6.22;;;;;;;3.06;100.00;95802.34;5061376;28;20110;-68
2021/10/29 03:55:42;;;;;;;11.93;5.82;;;;;;;3.04;100.00;95809.44;5065398;28;20066;-69
2021/10/29 03:58:08;;;;;;;10.48;5.28;;;;;;;2.95;100.00;95807.81;5073370;28;20044;-69
2021/10/29 04:00:35;;;;;;;18.40;8.52;;;;;;;2.89;100.00;95808.47;5069153;28;20059;-69
2021/10/29 04:03:05;;;;;;;12.68;6.88;;;;;;;2.83;100.00;95808.13;5069774;28;20433;-68
2021/10/29 04:05:34;;;;;;;16.40;7.30;;;;;;;2.79;100.00;95811.97;5065340;28;20090;-68
2021/10/29 04:08:01;;;;;;;15.52;6.95;;;;;;;2.79;100.00;95811.97;5070828;28;20047;-68
2021/10/29 04:10:30;;;;;;;18.60;7.53;;;;;;;2.67;100.00;95798.59;5063996;28;20051;-68
2021/10/29 04:13:00;;;;;;;15.85;6.60;;;;;;;2.53;100.00;95770.13;5067087;28;20551;-68
2021/10/29 04:15:27;;;;;;;13.20;6.57;;;;;;;2.68;100.00;95800.22;5066728;28;20480;-68
2021/10/29 04:17:55;;;;;;;13.55;6.40;;;;;;;2.77;100.00;95802.78;5064720;28;20570;-68
2021/10/29 04:20:23;;;;;;;19.30;8.98;;;;;;;2.74;100.00;95798.78;5066722;28;20041;-68
2021/10/29 04:22:50;;;;;;;14.88;8.75;;;;;;;2.74;100.00;95792.81;5065094;28;20513;-69
2021/10/29 04:25:17;;;;;;;21.05;8.02;;;;;;;2.79;100.00;95801.69;5072878;28;20047;-69
2021/10/29 04:27:54;;;;;;;23.67;9.75;;;;;;;2.81;100.00;95796.38;5077150;28;20098;-69
2021/10/29 04:30:23;;;;;;;20.35;8.30;;;;;;;2.85;100.00;95779.66;5052670;28;20054;-68
2021/10/29 04:32:50;;;;;;;13.95;6.18;;;;;;;2.98;100.00;95790.28;5072108;28;20449;-68
2021/10/29 04:35:17;;;;;;;15.60;7.15;;;;;;;3.04;100.00;95794.81;5068606;28;20615;-68
2021/10/29 04:37:44;;;;;;;18.27;7.78;;;;;;;2.96;100.00;95770.84;5072606;28;20044;-68
2021/10/29 04:40:11;;;;;;;17.73;7.60;;;;;;;3.03;100.00;95797.53;5066125;28;20484;-69
2021/10/29 04:42:39;;;;;;;13.38;6.20;;;;;;;2.92;100.00;95800.41;5071919;28;20101;-69
2021/10/29 04:45:06;;;;;;;12.50;6.75;;;;;;;2.73;100.00;95802.31;5070067;28;20067;-68
2021/10/29 04:47:34;;;;;;;9.65;5.80;;;;;;;2.63;100.00;95801.66;5069908;28;20047;-68
2021/10/29 04:50:01;;;;;;;12.75;5.80;;;;;;;2.62;100.00;95794.91;5065611;28;20040;-69
2021/10/29 04:52:28;;;;;;;12.93;6.38;;;;;;;2.48;100.00;95804.00;5069304;28;20051;-68
2021/10/29 04:54:56;;;;;;;11.63;5.53;;;;;;;2.46;100.00;95806.72;5067341;28;20141;-68
2021/10/29 04:57:23;;;;;;;16.00;7.13;;;;;;;2.48;100.00;95807.41;5067339;28;20425;-68
2021/10/29 04:59:50;;;;;;;16.30;8.40;;;;;;;2.48;100.00;95807.41;5066188;28;20098;-69
2021/10/29 05:02:16;;;;;;;20.83;11.57;;;;;;;2.61;100.00;95813.84;5065191;28;20719;-69
2021/10/29 05:04:44;;;;;;;18.38;8.73;;;;;;;2.57;100.00;95797.13;5064540;28;20119;-68
2021/10/29 05:07:10;;;;;;;17.02;9.52;;;;;;;2.62;100.00;95810.31;5068266;28;20043;-68
2021/10/29 05:09:37;;;;;;;21.75;10.70;;;;;;;2.68;100.00;95812.25;5066892;28;20045;-68
2021/10/29 05:12:04;;;;;;;32.83;17.65;;;;;;;2.68;100.00;95819.97;5065094;28;20041;-68
2021/10/29 05:14:31;;;;;;;36.15;16.15;;;;;;;2.70;100.00;95805.19;5052321;28;20052;-69
2021/10/29 05:16:58;;;;;;;27.27;14.75;;;;;;;2.85;100.00;95811.34;5069711;28;20059;-69
2021/10/29 05:19:25;;;;;;;15.35;8.90;;;;;;;2.96;100.00;95812.00;5065672;28;20105;-69
2021/10/29 05:21:52;;;;;;;17.10;9.10;;;;;;;3.06;100.00;95812.63;5067156;28;20044;-69
2021/10/29 05:24:18;;;;;;;16.45;8.05;;;;;;;2.99;100.00;95785.94;5068324;28;20039;-70
2021/10/29 05:26:45;;;;;;;13.93;7.38;;;;;;;3.14;100.00;95799.78;5068270;28;20051;-69
2021/10/29 05:29:12;;;;;;;15.65;7.28;;;;;;;3.23;100.00;95809.13;5067173;28;20056;-67
2021/10/29 05:31:39;;;;;;;14.65;6.88;;;;;;;3.34;100.00;95814.91;5069382;28;20044;-66
2021/10/29 05:34:06;;;;;;;13.93;7.78;;;;;;;3.34;100.00;95804.63;5068317;28;20048;-66
2021/10/29 05:36:35;;;;;;;12.75;7.70;;;;;;;3.44;100.00;95815.56;5067467;28;20051;-66
2021/10/29 05:39:06;;;;;;;11.73;6.70;;;;;;;3.57;100.00;95815.88;5067788;28;20406;-67
2021/10/29 05:41:33;;;;;;;70.47;27.40;;;;;;;3.57;100.00;95815.88;5067249;28;20127;-67
2021/10/29 05:44:00;;;;;;;66.13;27.38;;;;;;;3.66;100.00;95818.44;5073061;28;20059;-68
2021/10/29 05:46:30;;;;;;;33.13;15.27;;;;;;;3.81;100.00;95827.09;5071384;28;20563;-68
2021/10/29 05:48:58;;;;;;;19.45;11.30;;;;;;;3.90;100.00;95836.44;5067541;28;20429;-68
2021/10/29 05:51:26;;;;;;;17.52;9.80;;;;;;;3.86;100.00;95824.84;5069441;28;20040;-67
2021/10/29 05:54:07;;;;;;;20.67;10.35;;;;;;;3.86;100.00;95809.38;5076150;28;20086;-68
2021/10/29 05:56:35;;;;;;;21.02;11.25;;;;;;;3.83;100.00;95797.63;5070723;28;20047;-68
2021/10/29 05:59:04;;;;;;;23.30;10.50;;;;;;;4.15;100.00;95838.94;5070267;28;20460;-68
2021/10/29 06:01:32;;;;;;;38.72;20.02;;;;;;;4.22;100.00;95840.69;5066152;28;20063;-68
2021/10/29 06:03:59;;;;;;;44.45;24.38;;;;;;;4.30;100.00;95842.44;5065659;28;20041;-68
2021/10/29 06:06:26;;;;;;;23.35;12.93;;;;;;;4.35;100.00;95839.38;5067676;28;20051;-68
2021/10/29 06:08:54;;;;;;;22.83;10.23;;;;;;;4.44;100.00;95840.16;5072218;28;20098;-70
2021/10/29 06:11:21;;;;;;;26.63;12.93;;;;;;;4.50;100.00;95840.28;5066595;28;20040;-70
2021/10/29 06:13:48;;;;;;;25.10;12.70;;;;;;;4.56;100.00;95851.72;5052505;28;20047;-69
2021/10/29 06:16:15;;;;;;;16.00;8.95;;;;;;;4.60;100.00;95843.44;5070784;28;20486;-69
2021/10/29 06:18:42;;;;;;;17.55;8.40;;;;;;;4.71;100.00;95850.00;5066152;28;20518;-69
2021/10/29 06:21:10;;;;;;;15.18;8.23;;;;;;;4.83;100.00;95852.22;5066993;28;20041;-69
2021/10/29 06:24:00;;;;;;;16.20;8.30;;;;;;;4.94;100.00;95851.84;5068096;28;20107;-69
2021/10/29 06:26:38;;;;;;;11.93;7.68;;;;;;;5.05;100.00;95856.59;5066028;28;20098;-69
2021/10/29 06:29:05;;;;;;;21.13;9.07;;;;;;;5.16;100.00;95852.81;5064632;28;20547;-69
2021/10/29 06:31:32;;;;;;;16.25;8.15;;;;;;;5.28;100.00;95845.50;5064320;28;20040;-70
2021/10/29 06:33:59;;;;;;;17.15;7.93;;;;;;;5.43;100.00;95848.13;5064839;28;20118;-70
2021/10/29 06:36:27;;;;;;;16.40;7.97;;;;;;;5.50;100.00;95849.81;5068498;28;20041;-70
2021/10/29 06:38:57;;;;;;;15.73;8.30;;;;;;;5.61;100.00;95845.22;5065705;28;20052;-69
2021/10/29 06:41:24;;;;;;;17.13;8.98;;;;;;;5.73;100.00;95859.34;5066607;28;20047;-70
2021/10/29 06:46:43;;;;;;;14.52;7.95;;;;;;;5.96;100.00;95848.16;5063145;28;20094;-69
2021/10/29 07:40:23;;;;;;;23.90;11.57;;;;;;;8.95;90.34;95833.69;5064539;28;20382;-71
2021/10/29 07:45:26;;;;;;;19.90;10.73;;;;;;;9.26;88.99;95843.53;5066538;28;20059;-69
2021/10/29 07:47:54;;;;;;;23.58;12.90;;;;;;;9.35;88.21;95824.13;5068554;28;20044;-69
2021/10/29 07:50:21;;;;;;;32.40;16.83;;;;;;;9.68;90.32;95833.75;5072200;28;20059;-69
2021/10/29 07:52:51;;;;;;;111.50;53.42;;;;;;;9.90;86.36;95838.75;5071446;28;20413;-70
2021/10/29 07:55:20;;;;;;;43.10;22.58;;;;;;;9.97;85.41;95831.75;5066006;28;20052;-70
2021/10/29 07:57:47;;;;;;;38.60;19.13;;;;;;;10.05;84.46;95831.53;5067215;28;20098;-69
2021/10/29 08:00:17;;;;;;;49.40;24.20;;;;;;;10.10;83.60;95831.72;5067231;28;20036;-70
2021/10/29 08:02:47;;;;;;;38.38;19.15;;;;;;;10.20;84.84;95830.50;5064148;28;20045;-69
2021/10/29 08:05:14;;;;;;;23.88;12.65;;;;;;;10.36;84.17;95827.50;5070493;28;20067;-71
2021/10/29 08:07:41;;;;;;;33.55;17.38;;;;;;;10.60;84.33;95830.44;5066482;28;20060;-70
2021/10/29 08:10:10;;;;;;;23.73;11.15;;;;;;;10.80;82.60;95825.13;5071164;28;20036;-70
2021/10/29 08:12:39;;;;;;;23.85;12.98;;;;;;;11.10;79.31;95830.59;5052883;28;20048;-70
2021/10/29 08:15:07;;;;;;;12.57;7.95;;;;;;;11.22;75.61;95822.91;5047601;28;20049;-69
2021/10/29 08:17:35;;;;;;;12.10;7.80;;;;;;;11.39;74.58;95817.97;5068677;28;20044;-69
2021/10/29 08:20:08;;;;;;;16.08;9.85;;;;;;;11.72;74.73;95817.75;5068502;28;20070;-70
2021/10/29 08:22:37;;;;;;;19.52;11.68;;;;;;;11.93;73.08;95819.19;5067565;28;20041;-69
2021/10/29 08:25:06;;;;;;;12.25;7.30;;;;;;;12.03;71.99;95801.22;5065369;28;20048;-70
2021/10/29 08:27:33;;;;;;;11.80;6.95;;;;;;;12.23;73.23;95810.69;5066740;28;20041;-70
2021/10/29 08:30:00;;;;;;;15.68;7.50;;;;;;;12.33;72.83;95813.56;5047360;28;20052;-70
2021/10/29 08:32:27;;;;;;;57.72;28.95;;;;;;;12.37;71.21;95799.06;5069272;28;20044;-70
2021/10/29 08:34:55;;;;;;;10.98;6.95;;;;;;;12.65;71.79;95800.34;5080900;28;20052;-69
2021/10/29 08:37:27;;;;;;;7.50;4.85;;;;;;;12.69;69.44;95805.94;5066595;28;20563;-70
2021/10/29 08:39:55;;;;;;;9.43;6.15;;;;;;;12.72;68.34;95805.50;5064233;28;20114;-70
2021/10/29 08:42:21;;;;;;;8.40;6.07;;;;;;;12.88;70.21;95814.56;5066514;28;20090;-70
2021/10/29 08:44:49;;;;;;;12.13;6.00;;;;;;;12.97;66.83;95802.78;5065852;28;20088;-70
2021/10/29 08:47:21;;;;;;;7.30;4.90;;;;;;;13.06;66.16;95801.44;5066470;28;20497;-70
2021/10/29 08:49:49;;;;;;;47.40;24.42;;;;;;;13.16;66.77;95796.47;5070441;28;20056;-70
2021/10/29 08:52:21;;;;;;;12.77;5.95;;;;;;;13.41;63.93;95798.13;5068229;28;20501;-70
2021/10/29 08:54:50;;;;;;;10.38;5.53;;;;;;;13.50;63.09;95796.78;5067582;28;20044;-70
2021/10/29 08:57:18;;;;;;;8.77;5.28;;;;;;;13.76;62.80;95800.03;5066594;28;20037;-71
2021/10/29 08:59:48;;;;;;;6.95;4.93;;;;;;;13.83;61.91;95795.47;5067091;28;20044;-70
2021/10/29 09:04:55;;;;;;;8.85;5.18;;;;;;;14.09;59.69;95793.41;5067628;28;20413;-71
2021/10/29 09:32:59;;;;;;;5.57;3.63;;;;;;;15.51;46.32;95777.22;5065641;28;20043;-71
2021/10/29 09:35:28;;;;;;;7.97;4.07;;;;;;;15.53;47.02;95770.66;5067083;28;20040;-71
2021/10/29 09:38:05;;;;;;;32.25;21.80;;;;;;;15.65;47.66;95767.97;5070879;28;20044;-70
2021/10/29 09:41:10;;;;;;;;;;;;;;;16.43;46.64;95773.25;5067782;28;20501;-71
2021/10/29 09:43:57;;;;;;;5.85;3.20;;;;;;;16.74;43.81;95765.72;5050219;28;19931;-71
2021/10/29 09:46:46;;;;;;;4.85;2.80;;;;;;;16.48;42.78;95760.19;5067980;28;20036;-71
2021/10/29 09:49:20;;;;;;;4.53;2.40;;;;;;;16.81;40.39;95763.69;5067706;28;20044;-71
2021/10/29 09:52:08;;;;;;;3.80;1.85;;;;;;;17.16;38.40;95765.09;5072437;28;20048;-71
2021/10/29 09:55:13;;;;;;;3.33;1.95;;;;;;;17.39;41.49;95751.66;5070147;28;20102;-71
2021/10/29 09:57:30;;;;;;;;;;;;;;;17.80;38.52;95748.50;5071655;28;20544;-70
2021/10/29 09:59:59;;;;;;;5.47;2.75;;;;;;;17.72;38.30;95747.13;5067879;28;19920;-71
2021/10/29 10:02:29;;;;;;;4.43;2.78;;;;;;;17.66;36.05;95748.13;5069246;28;20044;-71
2021/10/29 10:05:04;;;;;;;4.13;2.47;;;;;;;17.95;36.51;95745.19;5089097;28;20055;-71
2021/10/29 10:07:36;;;;;;;3.42;2.35;;;;;;;18.29;36.69;95743.00;5070686;28;20060;-71
2021/10/29 10:10:07;;;;;;;6.70;2.88;;;;;;;18.69;35.94;95741.56;5068991;28;20116;-71
2021/10/29 10:12:37;;;;;;;6.80;4.22;;;;;;;18.23;33.56;95740.59;5070948;28;20046;-71
2021/10/29 10:15:08;;;;;;;8.05;2.40;;;;;;;18.37;36.04;95747.00;5068435;28;20045;-71
2021/10/29 10:17:36;;;;;;;4.80;2.20;;;;;;;18.61;35.35;95725.44;5069374;28;21139;-71
2021/10/29 10:20:04;;;;;;;4.15;2.10;;;;;;;19.03;35.27;95737.69;5073236;28;20047;-70
2021/10/29 10:22:40;;;;;;;6.90;1.92;;;;;;;19.31;33.81;95743.53;5041050;28;20051;-71
2021/10/29 10:25:16;;;;;;;3.92;2.20;;;;;;;19.35;32.96;95734.81;5052027;28;20422;-71
2021/10/29 10:30:49;;;;;;;3.20;2.10;;;;;;;19.16;33.74;95729.28;5053825;28;20040;-71
2021/10/29 10:47:06;;;;;;;3.00;1.90;;;;;;;18.91;31.00;95708.91;5071229;28;20109;-71
2021/10/29 10:49:36;;;;;;;3.33;1.70;;;;;;;18.84;29.59;95714.44;5075366;28;20505;-71
2021/10/29 10:54:56;;;;;;;6.97;2.78;;;;;;;19.04;32.00;95700.47;5073756;28;20040;-71
2021/10/29 11:11:15;;;;;;;2.47;1.40;;;;;;;19.45;26.83;95697.06;5049538;28;20056;-72
2021/10/29 11:13:42;;;;;;;2.92;1.40;;;;;;;19.70;27.56;95692.78;5069649;28;20059;-71
2021/10/29 11:16:29;;;;;;;4.28;1.63;;;;;;;19.40;25.92;95689.13;5082984;28;20036;-71
2021/10/29 11:19:19;;;;;;;2.65;1.60;;;;;;;19.59;26.53;95682.25;5069729;28;20051;-71
2021/10/29 11:21:54;;;;;;;3.25;1.67;;;;;;;19.73;26.12;95676.38;5077962;28;20907;-71
2021/10/29 11:24:35;;;;;;;1.60;1.20;;;;;;;20.10;26.62;95681.34;5057623;28;20101;-71
2021/10/29 11:27:18;;;;;;;8.30;4.93;;;;;;;20.19;26.60;95682.34;5069591;28;20043;-71
2021/10/29 11:29:50;;;;;;;2.67;1.85;;;;;;;19.53;26.09;95678.00;5049794;28;20044;-71
2021/10/29 11:32:19;;;;;;;2.53;1.92;;;;;;;20.04;26.66;95672.63;5067640;28;20524;-71
2021/10/29 11:34:53;;;;;;;4.00;2.13;;;;;;;20.24;25.50;95671.75;5069923;28;20473;-71
2021/10/29 11:37:20;;;;;;;;;;;;;;;20.43;25.95;95674.56;5069550;28;20047;-70
2021/10/29 11:39:47;;;;;;;3.10;2.13;;;;;;;20.44;26.02;95664.78;5067801;28;19924;-70
2021/10/29 11:42:18;;;;;;;5.75;2.30;;;;;;;20.47;24.39;95664.22;5068538;28;20041;-71
2021/10/29 11:44:45;;;;;;;3.20;1.60;;;;;;;20.14;26.91;95663.06;5069398;28;20056;-71
2021/10/29 11:47:13;;;;;;;3.17;1.60;;;;;;;20.21;26.76;95667.00;5069419;28;20056;-70
2021/10/29 11:49:39;;;;;;;2.55;1.85;;;;;;;20.36;25.74;95660.06;5067610;28;20036;-71
2021/10/29 11:52:07;;;;;;;2.67;1.85;;;;;;;20.47;26.06;95663.44;5052403;28;20052;-70
2021/10/29 11:54:40;;;;;;;4.75;1.98;;;;;;;20.60;26.15;95652.28;5070412;28;20044;-70
2021/10/29 11:57:22;;;;;;;5.82;2.60;;;;;;;20.19;27.33;95657.78;5067521;28;20048;-70
2021/10/29 12:07:48;;;;;;;3.03;1.42;;;;;;;20.14;25.46;95649.84;5068589;28;20517;-71
2021/10/29 12:10:22;;;;;;;5.47;2.20;;;;;;;20.18;26.28;95645.59;5067472;28;20127;-70
2021/10/29 12:12:56;;;;;;;5.68;2.33;;;;;;;20.59;24.23;95640.09;5066370;28;20437;-70
2021/10/29 12:15:26;;;;;;;10.68;5.20;;;;;;;20.43;26.16;95648.09;5069229;28;20028;-70
2021/10/29 12:20:44;;;;;;;3.47;2.08;;;;;;;20.31;25.20;95645.03;5069500;28;20049;-69
2021/10/29 12:23:27;;;;;;;2.75;2.03;;;;;;;20.34;25.33;95641.03;5069830;28;20066;-70
2021/10/29 12:26:03;;;;;;;1.85;1.00;;;;;;;20.78;24.63;95649.00;5071840;28;20044;-71
2021/10/29 12:28:41;;;;;;;2.33;1.33;;;;;;;20.70;24.13;95648.78;5074692;28;20517;-71
2021/10/29 12:31:43;;;;;;;2.88;1.75;;;;;;;20.99;24.07;95620.50;5075388;28;20048;-71
2021/10/29 13:01:25;;;;;;;2.15;1.50;;;;;;;19.46;25.93;95622.00;5073593;28;20101;-70
2021/10/29 13:02:04;;;;;;;3.05;1.58;;;;;;;19.36;26.54;95635.25;5072758;28;20036;-69
2021/10/29 13:04:50;;;;;;;2.30;1.80;;;;;;;19.53;26.29;95630.44;5073518;28;20036;-70
2021/10/29 13:07:28;;;;;;;2.30;1.75;;;;;;;19.65;26.99;95633.59;5076438;28;20052;-70
2021/10/29 13:10:06;;;;;;;2.17;1.52;;;;;;;19.66;24.90;95632.53;5086229;28;20538;-69
2021/10/29 13:12:53;;;;;;;2.35;1.42;;;;;;;19.45;25.70;95628.38;5072192;28;20044;-69
2021/10/29 13:15:21;;;;;;;4.10;1.67;;;;;;;19.47;27.10;95631.53;5071613;28;20061;-68
2021/10/29 13:18:05;;;;;;;2.78;1.50;;;;;;;19.21;25.81;95617.56;5067255;28;20404;-69
2021/10/29 13:26:12;;;;;;;3.17;2.10;;;;;;;19.51;27.02;95627.28;5065918;28;20044;-70
2021/10/29 14:30:20;;;;;;;10.82;2.70;;;;;;;16.74;28.64;95621.84;5070117;28;20055;-69
2021/10/29 14:32:51;;;;;;;3.92;1.50;;;;;;;16.52;30.07;95629.78;5074525;28;20050;-69
2021/10/29 14:40:51;;;;;;;4.03;1.58;;;;;;;15.97;30.71;95638.66;5070267;28;20055;-69
2021/10/29 14:43:28;;;;;;;2.25;1.58;;;;;;;15.84;30.14;95634.56;5072881;28;20047;-69
2021/10/29 14:46:20;;;;;;;2.58;1.70;;;;;;;16.02;31.52;95633.47;5071906;28;20453;-69
2021/10/29 15:02:40;;;;;;;2.60;1.70;;;;;;;14.36;34.70;95620.75;5073007;28;20410;-69
2021/10/29 15:05:21;;;;;;;4.97;1.77;;;;;;;14.16;34.86;95642.16;5075022;28;20146;-69
2021/10/29 15:45:51;;;;;;;8.70;4.20;;;;;;;12.48;42.23;95661.69;5065897;28;20055;-69
2021/10/29 15:48:24;;;;;;;6.03;4.85;;;;;;;12.39;42.97;95660.41;5063363;28;20051;-69
2021/10/29 15:50:51;;;;;;;9.70;5.85;;;;;;;12.31;43.97;95661.47;5065633;28;20048;-69
2021/10/29 15:53:18;;;;;;;5.65;3.83;;;;;;;12.02;44.44;95663.84;5078502;28;20044;-69
2021/10/29 15:55:58;;;;;;;5.78;4.18;;;;;;;12.02;44.59;95671.69;5063936;28;20037;-69
2021/10/29 15:58:35;;;;;;;5.80;2.80;;;;;;;11.99;44.62;95666.91;5067927;28;20055;-69
2021/10/29 16:04:00;;;;;;;5.30;2.65;;;;;;;11.75;45.07;95650.28;5050882;28;20060;-69
2021/10/29 16:17:28;;;;;;;5.80;4.05;;;;;;;11.31;49.14;95669.56;5066304;28;20032;-69
2021/10/29 16:19:55;;;;;;;8.60;5.20;;;;;;;11.31;49.17;95674.78;5064366;28;22401;-69
2021/10/29 16:22:25;;;;;;;6.97;4.75;;;;;;;11.37;48.88;95679.16;5063036;28;21479;-69
2021/10/29 16:27:20;;;;;;;9.05;5.97;;;;;;;11.37;49.93;95677.34;5074732;28;20543;-69
2021/10/29 16:29:49;;;;;;;16.60;9.38;;;;;;;11.31;49.99;95680.00;5067843;28;20044;-69
2021/10/29 16:32:48;;;;;;;23.05;10.82;;;;;;;11.43;50.11;95683.50;5065280;28;20126;-69
2021/10/29 16:35:13;;;;;;;22.35;11.88;;;;;;;11.48;49.04;95686.28;5068480;28;20040;-69
2021/10/29 16:37:40;;;;;;;11.65;6.75;;;;;;;11.51;49.52;95685.84;5067523;28;20110;-69
2021/10/29 16:40:08;;;;;;;7.25;4.88;;;;;;;11.53;48.64;95686.44;5067253;28;20044;-68
2021/10/29 16:42:35;;;;;;;8.63;5.53;;;;;;;11.55;48.91;95689.63;5068026;28;20056;-69